createdAt,value
2023-03-17T00:01:31.790Z,1.00
2023-03-17T00:03:39.831Z,1.00
2023-03-17T00:05:43.808Z,0.90
2023-03-17T00:07:47.891Z,0.80
2023-03-17T00:09:51.319Z,0.90
2023-03-17T00:11:56.330Z,0.80
2023-03-17T00:13:59.805Z,0.90
2023-03-17T00:16:05.430Z,0.80
2023-03-17T00:18:13.653Z,0.70
2023-03-17T00:20:25.550Z,0.70
2023-03-17T00:22:29.057Z,0.70
2023-03-17T00:24:32.540Z,0.80
2023-03-17T00:26:36.401Z,0.70
2023-03-17T00:28:41.433Z,0.60
2023-03-17T00:30:45.131Z,0.60
2023-03-17T00:32:50.825Z,0.70
2023-03-17T00:34:54.412Z,0.70
2023-03-17T00:36:57.873Z,0.70
2023-03-17T00:39:01.695Z,0.60
2023-03-17T00:41:05.976Z,0.70
2023-03-17T00:43:09.825Z,0.60
2023-03-17T00:45:16.145Z,0.60
2023-03-17T00:47:19.495Z,0.50
2023-03-17T00:49:24.917Z,0.40
2023-03-17T00:51:28.377Z,0.50
2023-03-17T00:53:31.861Z,0.40
2023-03-17T00:55:35.414Z,0.50
2023-03-17T00:57:40.246Z,0.50
2023-03-17T00:59:43.862Z,0.40
2023-03-17T01:01:49.365Z,0.30
2023-03-17T01:03:52.934Z,0.40
2023-03-17T01:05:57.964Z,0.30
2023-03-17T01:08:01.504Z,0.30
2023-03-17T01:10:06.749Z,0.30
2023-03-17T01:12:13.853Z,0.20
2023-03-17T01:14:18.119Z,0.20
2023-03-17T01:16:21.777Z,0.20
2023-03-17T01:18:27.432Z,0.30
2023-03-17T01:20:33.226Z,0.40
2023-03-17T01:22:36.716Z,0.30
2023-03-17T01:24:40.440Z,0.30
2023-03-17T01:26:44.018Z,0.10
2023-03-17T01:28:47.593Z,0.00
2023-03-17T01:30:51.484Z,0.10
2023-03-17T01:32:55.763Z,0.00
2023-03-17T01:35:00.596Z,-0.10
2023-03-17T01:37:04.407Z,-0.10
2023-03-17T01:39:08.031Z,0.10
2023-03-17T01:41:12.767Z,0.10
2023-03-17T01:43:22.674Z,0.10
2023-03-17T01:46:02.984Z,0.00
2023-03-17T01:48:06.691Z,0.10
2023-03-17T01:50:12.402Z,0.00
2023-03-17T01:52:18.076Z,0.00
2023-03-17T01:54:27.306Z,0.00
2023-03-17T01:56:31.795Z,-0.10
2023-03-17T01:58:35.592Z,0.00
2023-03-17T02:00:39.947Z,0.10
2023-03-17T02:02:46.525Z,0.10
2023-03-17T02:04:52.430Z,0.00
2023-03-17T02:06:59.080Z,0.10
2023-03-17T02:09:03.130Z,0.00
2023-03-17T02:11:07.250Z,0.00
2023-03-17T02:13:12.455Z,-0.10
2023-03-17T02:15:16.392Z,0.00
2023-03-17T02:17:20.260Z,-0.10
2023-03-17T02:19:23.800Z,0.00
2023-03-17T02:21:47.853Z,-0.10
2023-03-17T02:23:51.729Z,0.00
2023-03-17T02:25:55.858Z,0.00
2023-03-17T02:28:03.541Z,0.00
2023-03-17T02:30:09.400Z,0.00
2023-03-17T02:32:13.493Z,-0.10
2023-03-17T02:34:17.196Z,-0.20
2023-03-17T02:36:20.618Z,-0.20
2023-03-17T02:38:26.523Z,-0.30
2023-03-17T02:40:30.365Z,-0.30
2023-03-17T02:42:34.459Z,-0.30
2023-03-17T02:44:38.567Z,-0.20
2023-03-17T02:46:42.651Z,-0.20
2023-03-17T02:48:47.793Z,-0.30
2023-03-17T02:50:51.616Z,-0.30
2023-03-17T02:52:55.308Z,-0.40
2023-03-17T02:55:00.440Z,-0.30
2023-03-17T02:57:04.044Z,-0.20
2023-03-17T02:59:08.643Z,-0.30
2023-03-17T03:01:12.105Z,-0.30
2023-03-17T03:03:15.652Z,-0.30
2023-03-17T03:05:19.942Z,-0.20
2023-03-17T03:07:24.171Z,-0.30
2023-03-17T03:09:27.789Z,-0.30
2023-03-17T03:11:32.708Z,-0.30
2023-03-17T03:13:36.839Z,-0.30
2023-03-17T03:15:43.106Z,-0.30
2023-03-17T03:17:46.800Z,-0.30
2023-03-17T03:19:50.591Z,-0.20
2023-03-17T03:21:54.074Z,-0.40
2023-03-17T03:23:57.872Z,-0.40
2023-03-17T03:26:01.317Z,-0.40
2023-03-17T03:28:06.813Z,-0.50
2023-03-17T03:30:11.947Z,-0.40
2023-03-17T03:32:15.515Z,-0.30
2023-03-17T03:34:22.522Z,-0.40
2023-03-17T03:36:26.929Z,-0.50
2023-03-17T03:38:30.723Z,-0.60
2023-03-17T03:40:34.129Z,-0.60
2023-03-17T03:42:37.724Z,-0.50
2023-03-17T03:44:42.657Z,-0.60
2023-03-17T03:46:46.368Z,-0.50
2023-03-17T03:48:50.080Z,-0.50
2023-03-17T03:50:58.270Z,-0.50
2023-03-17T03:53:01.644Z,-0.60
2023-03-17T03:55:05.742Z,-0.60
2023-03-17T03:57:09.344Z,-0.60
2023-03-17T03:59:12.945Z,-0.60
2023-03-17T04:01:18.534Z,-0.60
2023-03-17T04:03:22.087Z,-0.70
2023-03-17T04:05:25.684Z,-0.70
2023-03-17T04:07:29.174Z,-0.60
2023-03-17T04:09:32.878Z,-0.60
2023-03-17T04:11:36.596Z,-0.70
2023-03-17T04:13:40.052Z,-0.70
2023-03-17T04:15:43.768Z,-0.60
2023-03-17T04:17:48.775Z,-0.70
2023-03-17T04:19:52.463Z,-0.70
2023-03-17T04:21:56.274Z,-0.70
2023-03-17T04:24:00.212Z,-0.70
2023-03-17T04:26:04.207Z,-0.60
2023-03-17T04:28:09.143Z,-0.60
2023-03-17T04:30:14.861Z,-0.70
2023-03-17T04:32:18.687Z,-0.70
2023-03-17T04:34:24.309Z,-0.60
2023-03-17T04:36:28.213Z,-0.60
2023-03-17T04:38:31.718Z,-0.70
2023-03-17T04:40:35.132Z,-0.70
2023-03-17T04:42:39.168Z,-0.60
2023-03-17T04:44:43.153Z,-0.60
2023-03-17T04:46:47.051Z,-0.70
2023-03-17T04:48:50.418Z,-0.60
2023-03-17T04:50:55.356Z,-0.60
2023-03-17T04:52:59.273Z,-0.60
2023-03-17T04:55:03.055Z,-0.60
2023-03-17T04:57:06.868Z,-0.70
2023-03-17T04:59:10.336Z,-0.80
2023-03-17T05:01:13.828Z,-0.80
2023-03-17T05:03:26.723Z,-0.80
2023-03-17T05:05:30.839Z,-0.70
2023-03-17T05:07:35.679Z,-0.70
2023-03-17T05:09:39.621Z,-0.70
2023-03-17T05:11:43.186Z,-0.70
2023-03-17T05:13:47.117Z,-0.70
2023-03-17T05:15:51.648Z,-0.80
2023-03-17T05:17:55.183Z,-0.90
2023-03-17T05:19:58.688Z,-0.80
2023-03-17T05:22:02.154Z,-0.70
2023-03-17T05:24:07.889Z,-0.70
2023-03-17T05:26:11.569Z,-0.70
2023-03-17T05:28:15.474Z,-0.70
2023-03-17T05:30:19.420Z,-0.70
2023-03-17T05:32:23.358Z,-0.70
2023-03-17T05:34:27.163Z,-0.70
2023-03-17T05:36:30.657Z,-0.70
2023-03-17T05:38:34.185Z,-0.60
2023-03-17T05:40:39.492Z,-0.60
2023-03-17T05:42:43.191Z,-0.50
2023-03-17T05:44:47.016Z,-0.40
2023-03-17T05:46:50.417Z,-0.30
2023-03-17T05:48:54.204Z,-0.30
2023-03-17T05:50:57.656Z,-0.20
2023-03-17T05:53:01.067Z,-0.10
2023-03-17T05:55:04.929Z,0.00
2023-03-17T05:57:10.239Z,0.00
2023-03-17T05:59:15.772Z,0.10
2023-03-17T06:01:19.271Z,0.10
2023-03-17T06:03:23.071Z,0.20
2023-03-17T06:05:26.510Z,0.30
2023-03-17T06:07:41.122Z,0.50
2023-03-17T06:09:48.335Z,0.70
2023-03-17T06:11:52.164Z,0.80
2023-03-17T06:13:57.286Z,0.90
2023-03-17T06:16:00.805Z,0.90
2023-03-17T06:18:05.295Z,1.20
2023-03-17T06:20:10.338Z,1.30
2023-03-17T06:22:13.938Z,1.40
2023-03-17T06:24:17.589Z,1.70
2023-03-17T06:26:21.339Z,1.90
2023-03-17T06:28:25.374Z,2.00
